createdAt,value
2022-10-12T00:02:09.589Z,7.00
2022-10-12T00:04:37.011Z,7.00
2022-10-12T00:07:04.396Z,7.00
2022-10-12T00:09:34.432Z,7.00
2022-10-12T00:12:02.206Z,7.00
2022-10-12T00:14:29.696Z,6.90
2022-10-12T00:16:57.123Z,6.90
2022-10-12T00:19:24.733Z,6.80
2022-10-12T00:21:52.130Z,6.80
2022-10-12T00:24:19.667Z,6.80
2022-10-12T00:26:50.131Z,6.80
2022-10-12T00:29:17.675Z,6.80
2022-10-12T00:31:45.582Z,6.70
2022-10-12T00:34:13.329Z,6.70
2022-10-12T00:36:41.045Z,6.70
2022-10-12T00:39:09.490Z,6.60
2022-10-12T00:41:39.237Z,6.60
2022-10-12T00:44:25.118Z,6.60
2022-10-12T00:46:54.294Z,6.60
2022-10-12T00:49:23.672Z,6.50
2022-10-12T00:52:00.666Z,6.50
2022-10-12T00:54:34.912Z,6.50
2022-10-12T00:57:03.499Z,6.50
2022-10-12T00:59:37.534Z,6.40
2022-10-12T01:02:05.129Z,6.40
2022-10-12T01:04:32.926Z,6.40
2022-10-12T01:07:00.967Z,6.40
2022-10-12T01:09:28.942Z,6.40
2022-10-12T01:11:57.924Z,6.40
2022-10-12T01:14:26.112Z,6.30
2022-10-12T01:17:05.896Z,6.40
2022-10-12T01:19:36.514Z,6.30
2022-10-12T01:22:06.002Z,6.30
2022-10-12T01:24:40.888Z,6.30
2022-10-12T01:27:26.710Z,6.30
2022-10-12T01:29:54.573Z,6.30
2022-10-12T01:32:22.179Z,6.30
2022-10-12T01:35:05.536Z,6.30
2022-10-12T01:37:42.678Z,6.30
2022-10-12T01:40:16.190Z,6.30
2022-10-12T01:42:44.460Z,6.30
2022-10-12T01:45:14.458Z,6.30
2022-10-12T01:47:43.168Z,6.30
2022-10-12T01:50:12.530Z,6.30
2022-10-12T01:52:51.898Z,6.30
2022-10-12T01:55:45.791Z,6.30
2022-10-12T01:58:33.876Z,6.30
2022-10-12T02:01:01.265Z,6.30
2022-10-12T02:03:36.257Z,6.20
2022-10-12T02:06:06.993Z,6.20
2022-10-12T02:08:37.690Z,6.20
2022-10-12T02:11:08.617Z,6.20
2022-10-12T02:13:38.707Z,6.20
2022-10-12T02:16:09.993Z,6.10
2022-10-12T02:18:39.468Z,6.10
2022-10-12T02:21:07.777Z,6.10
2022-10-12T02:23:35.243Z,6.00
2022-10-12T02:26:03.278Z,6.00
2022-10-12T02:28:32.658Z,6.00
2022-10-12T02:31:03.982Z,6.00
2022-10-12T02:33:31.575Z,6.00
2022-10-12T02:36:01.887Z,5.90
2022-10-12T02:38:32.735Z,5.90
2022-10-12T02:41:05.708Z,5.90
2022-10-12T02:43:43.047Z,5.90
2022-10-12T02:46:11.097Z,5.90
2022-10-12T02:48:39.792Z,5.90
2022-10-12T02:51:08.581Z,5.90
2022-10-12T02:53:36.249Z,5.90
2022-10-12T02:56:05.559Z,5.80
2022-10-12T02:58:32.968Z,5.90
2022-10-12T03:01:00.511Z,5.80
2022-10-12T03:03:28.071Z,5.80
2022-10-12T03:05:56.218Z,5.80
2022-10-12T03:08:23.679Z,5.80
2022-10-12T03:10:51.142Z,5.90
2022-10-12T03:13:19.445Z,5.90
2022-10-12T03:15:46.985Z,5.90
2022-10-12T03:18:14.518Z,6.00
2022-10-12T03:20:42.296Z,6.00
2022-10-12T03:23:09.860Z,6.00
2022-10-12T03:25:37.285Z,6.10
2022-10-12T03:28:08.105Z,6.00
2022-10-12T03:30:35.537Z,6.10
2022-10-12T03:33:02.953Z,6.20
2022-10-12T03:35:33.327Z,6.20
2022-10-12T03:38:00.864Z,6.30
2022-10-12T03:40:28.246Z,6.40
2022-10-12T03:42:55.697Z,6.40
2022-10-12T03:45:23.044Z,6.50
2022-10-12T03:47:50.603Z,6.50
2022-10-12T03:50:18.082Z,6.60
2022-10-12T03:52:45.502Z,6.60
2022-10-12T03:55:13.410Z,6.60
2022-10-12T03:57:41.107Z,6.60
2022-10-12T04:00:08.947Z,6.60
2022-10-12T04:02:45.257Z,6.70
2022-10-12T04:05:12.715Z,6.70
2022-10-12T04:07:40.603Z,6.70
2022-10-12T04:10:08.722Z,6.70
2022-10-12T04:12:36.209Z,6.70
2022-10-12T04:15:04.470Z,6.70
2022-10-12T04:17:31.863Z,6.70
2022-10-12T04:19:59.385Z,6.80
2022-10-12T04:22:26.948Z,6.80
2022-10-12T04:24:58.440Z,6.80
2022-10-12T04:27:26.039Z,6.80
2022-10-12T04:29:54.640Z,6.90
2022-10-12T04:32:22.260Z,6.90
2022-10-12T04:34:55.530Z,6.90
2022-10-12T04:37:23.266Z,6.90
2022-10-12T04:39:50.877Z,6.90
2022-10-12T04:42:18.745Z,6.90
2022-10-12T04:44:46.987Z,7.00
2022-10-12T04:47:17.742Z,7.00
2022-10-12T04:49:46.256Z,7.00
2022-10-12T04:52:14.308Z,7.00
2022-10-12T04:54:41.913Z,7.00
2022-10-12T04:57:09.739Z,7.00
2022-10-12T04:59:37.500Z,7.00
2022-10-12T05:02:05.069Z,7.10
2022-10-12T05:07:06.732Z,7.10
2022-10-12T05:09:35.560Z,7.10
2022-10-12T05:12:12.975Z,7.10
2022-10-12T05:14:44.477Z,7.10
2022-10-12T05:17:15.655Z,7.10
2022-10-12T05:19:46.633Z,7.10
2022-10-12T05:22:14.157Z,7.00
2022-10-12T05:24:42.041Z,7.00
2022-10-12T05:27:09.698Z,7.00
2022-10-12T05:29:39.729Z,7.00
2022-10-12T05:32:07.351Z,7.00
2022-10-12T05:34:34.868Z,6.90
2022-10-12T05:37:05.377Z,6.90
2022-10-12T05:39:33.123Z,6.90
2022-10-12T05:42:01.079Z,7.00
2022-10-12T05:44:29.164Z,7.00
2022-10-12T05:46:58.314Z,7.00
2022-10-12T05:49:32.157Z,7.00
2022-10-12T05:52:00.318Z,7.00
2022-10-12T05:54:31.549Z,7.00
2022-10-12T05:57:10.888Z,7.00
2022-10-12T05:59:55.137Z,7.00
2022-10-12T06:02:22.800Z,7.10
2022-10-12T06:04:50.382Z,7.10
2022-10-12T06:07:21.280Z,7.10
2022-10-12T06:09:49.613Z,7.10
2022-10-12T06:12:29.073Z,7.10
2022-10-12T06:14:57.053Z,7.20
2022-10-12T06:17:24.520Z,7.20
2022-10-12T06:19:51.919Z,7.20
2022-10-12T06:22:19.388Z,7.30
2022-10-12T06:24:46.878Z,7.30
2022-10-12T06:27:14.369Z,7.30
2022-10-12T06:29:41.779Z,7.40
2022-10-12T06:32:09.448Z,7.40
2022-10-12T06:34:36.962Z,7.40
2022-10-12T06:37:04.525Z,7.40
2022-10-12T06:39:31.916Z,7.40
2022-10-12T06:41:59.353Z,7.50
2022-10-12T06:44:28.957Z,7.50
2022-10-12T06:46:56.364Z,7.50
2022-10-12T06:49:23.768Z,7.60
2022-10-12T06:51:51.342Z,7.60
2022-10-12T06:54:19.401Z,7.70
2022-10-12T06:56:46.977Z,7.70
2022-10-12T06:59:14.566Z,7.80
2022-10-12T07:01:42.097Z,7.80
2022-10-12T07:04:09.505Z,7.80
2022-10-12T07:06:36.865Z,7.90
2022-10-12T07:09:04.358Z,8.00
2022-10-12T07:11:31.774Z,8.10
2022-10-12T07:13:59.202Z,8.20
2022-10-12T07:16:26.656Z,8.30
2022-10-12T07:18:54.202Z,8.50
2022-10-12T07:21:22.066Z,8.60
2022-10-12T07:23:50.184Z,8.70
2022-10-12T07:26:18.143Z,8.70
2022-10-12T07:28:45.883Z,8.70
2022-10-12T07:31:13.421Z,8.80
2022-10-12T07:33:41.052Z,8.80
2022-10-12T07:36:21.243Z,8.90
2022-10-12T07:38:49.353Z,8.90
2022-10-12T07:41:17.221Z,9.00
2022-10-12T07:43:44.747Z,9.10
2022-10-12T07:46:14.175Z,9.20
2022-10-12T08:11:50.872Z,11.50
2022-10-12T08:24:38.678Z,14.00
2022-10-12T08:27:06.676Z,15.00
2022-10-12T08:29:34.238Z,15.20
2022-10-12T08:32:02.190Z,15.40
2022-10-12T08:34:30.897Z,15.40
2022-10-12T08:36:59.801Z,15.30
2022-10-12T08:39:27.662Z,15.20
2022-10-12T08:42:21.690Z,15.00
2022-10-12T08:45:03.842Z,14.90
2022-10-12T08:48:08.039Z,14.70
2022-10-12T08:50:43.862Z,14.60
2022-10-12T08:53:38.329Z,14.40
2022-10-12T08:56:06.366Z,14.30
2022-10-12T08:58:38.882Z,14.20
2022-10-12T09:01:36.980Z,14.20
2022-10-12T09:04:13.863Z,14.10
2022-10-12T09:06:48.541Z,14.30
2022-10-12T09:09:47.249Z,14.50
2022-10-12T09:12:29.105Z,14.90
2022-10-12T09:15:02.742Z,15.20
2022-10-12T09:17:41.005Z,15.40
2022-10-12T09:20:31.427Z,15.40
2022-10-12T09:23:17.429Z,15.50
2022-10-12T09:25:46.475Z,15.50
2022-10-12T09:28:29.000Z,15.50
2022-10-12T09:31:08.008Z,15.50
2022-10-12T09:33:47.892Z,15.50
2022-10-12T09:36:20.953Z,15.40
2022-10-12T09:38:50.061Z,15.30
2022-10-12T09:41:36.581Z,15.20
2022-10-12T09:44:06.376Z,15.20
2022-10-12T09:46:40.086Z,15.10
2022-10-12T09:49:07.740Z,15.20
2022-10-12T09:51:35.978Z,15.20
2022-10-12T09:54:05.635Z,15.30
2022-10-12T09:56:44.551Z,15.40
2022-10-12T09:59:28.328Z,15.60
2022-10-12T10:02:08.105Z,15.80
2022-10-12T10:04:36.209Z,16.00
2022-10-12T10:07:33.455Z,16.10
2022-10-12T10:10:08.210Z,16.20
2022-10-12T10:12:49.892Z,16.40
2022-10-12T10:15:43.364Z,16.60
2022-10-12T10:18:44.420Z,16.80
2022-10-12T10:21:17.909Z,17.10
2022-10-12T10:24:00.638Z,17.40
2022-10-12T10:26:32.328Z,18.00
2022-10-12T10:29:37.514Z,18.80
2022-10-12T10:32:12.641Z,19.40
2022-10-12T10:34:43.304Z,19.70
2022-10-12T10:37:23.053Z,19.70
2022-10-12T10:39:54.787Z,19.60
2022-10-12T10:42:28.511Z,19.60
2022-10-12T10:45:03.066Z,19.60
2022-10-12T10:47:36.469Z,19.40
2022-10-12T10:50:14.545Z,19.10
2022-10-12T10:53:00.654Z,18.80
2022-10-12T10:55:54.807Z,18.50
2022-10-12T10:58:46.993Z,18.40
2022-10-12T11:01:34.026Z,18.30
2022-10-12T11:04:09.378Z,18.40
2022-10-12T11:06:55.049Z,18.50
2022-10-12T11:09:31.027Z,18.70
2022-10-12T11:12:09.639Z,18.90
2022-10-12T11:15:06.941Z,19.00
2022-10-12T11:17:41.152Z,19.10
2022-10-12T11:20:19.915Z,19.00
2022-10-12T11:22:55.049Z,19.10
2022-10-12T11:26:06.623Z,19.60
2022-10-12T11:28:37.670Z,20.30
2022-10-12T11:31:12.503Z,20.90
2022-10-12T11:33:43.845Z,21.70
2022-10-12T11:36:23.179Z,22.30
2022-10-12T11:38:56.555Z,22.70
2022-10-12T11:42:09.759Z,23.10
2022-10-12T11:44:43.019Z,23.70
2022-10-12T11:47:31.159Z,24.00
2022-10-12T11:50:30.989Z,24.00
2022-10-12T11:53:02.090Z,23.80
2022-10-12T11:55:51.328Z,23.80
2022-10-12T11:58:59.325Z,23.90
2022-10-12T12:01:48.147Z,23.80
2022-10-12T12:04:41.724Z,23.50
2022-10-12T12:07:43.909Z,23.40
2022-10-12T12:10:30.696Z,23.70
2022-10-12T12:13:11.507Z,23.60
2022-10-12T12:15:41.098Z,23.10
2022-10-12T12:18:16.116Z,22.50
2022-10-12T12:20:43.782Z,21.70
2022-10-12T12:23:29.449Z,21.00
2022-10-12T12:26:16.572Z,20.40
2022-10-12T12:29:07.895Z,20.00
2022-10-12T12:31:35.923Z,19.60
2022-10-12T12:34:15.680Z,19.20
2022-10-12T12:36:50.043Z,18.90
2022-10-12T12:39:31.303Z,18.80
2022-10-12T12:42:02.831Z,18.80
2022-10-12T12:44:44.804Z,18.90
2022-10-12T12:47:43.385Z,19.00
2022-10-12T12:50:31.862Z,19.10
2022-10-12T12:53:19.475Z,19.10
2022-10-12T12:56:07.604Z,19.20
2022-10-12T12:59:08.504Z,19.00
2022-10-12T13:02:00.645Z,18.90
2022-10-12T13:04:51.895Z,18.70
2022-10-12T13:07:36.341Z,18.70
2022-10-12T13:10:26.661Z,18.80
2022-10-12T13:13:25.218Z,18.80
2022-10-12T13:16:11.819Z,18.90
2022-10-12T13:18:59.843Z,18.90
2022-10-12T13:21:38.305Z,18.80
2022-10-12T13:24:12.152Z,18.80
2022-10-12T13:26:41.126Z,18.70
2022-10-12T13:29:32.074Z,18.70
2022-10-12T13:32:02.714Z,18.80
2022-10-12T13:34:45.499Z,18.90
2022-10-12T13:37:15.760Z,18.90
2022-10-12T13:39:47.284Z,18.90
2022-10-12T13:42:31.129Z,18.90
2022-10-12T13:44:59.107Z,18.90
2022-10-12T13:47:33.793Z,18.70
2022-10-12T13:50:01.933Z,18.60
2022-10-12T13:52:32.983Z,18.50
2022-10-12T13:55:14.441Z,18.40
2022-10-12T13:57:50.137Z,18.30
2022-10-12T14:00:20.848Z,18.20
2022-10-12T14:03:02.317Z,18.10
2022-10-12T14:05:31.752Z,18.00
2022-10-12T14:08:07.702Z,17.90
2022-10-12T14:10:38.325Z,17.80
2022-10-12T14:13:16.060Z,17.80
2022-10-12T14:15:43.754Z,17.70
2022-10-12T14:18:35.774Z,17.70
2022-10-12T14:21:16.373Z,17.70
2022-10-12T14:23:58.977Z,17.70
2022-10-12T14:26:42.443Z,17.80
2022-10-12T14:29:29.200Z,17.80
2022-10-12T14:32:00.101Z,17.80
2022-10-12T14:34:27.763Z,17.80
2022-10-12T14:37:24.071Z,17.80
2022-10-12T14:39:59.295Z,17.90
2022-10-12T14:42:36.601Z,18.00
2022-10-12T14:45:22.819Z,18.00
2022-10-12T14:47:50.545Z,18.00
2022-10-12T14:50:21.193Z,18.10
2022-10-12T14:52:51.979Z,18.10
2022-10-12T14:55:20.735Z,18.10
2022-10-12T14:57:49.352Z,18.10
2022-10-12T15:00:19.705Z,18.00
2022-10-12T15:02:48.438Z,17.90
2022-10-12T15:05:18.041Z,17.90
2022-10-12T15:07:46.990Z,17.80
2022-10-12T15:10:16.082Z,17.70
2022-10-12T15:12:43.914Z,17.60
2022-10-12T15:15:28.724Z,17.50
2022-10-12T15:17:58.220Z,17.40
2022-10-12T15:20:30.079Z,17.40
2022-10-12T15:22:59.340Z,17.40
2022-10-12T15:25:35.856Z,17.30
2022-10-12T15:28:04.800Z,17.30
2022-10-12T15:30:33.381Z,17.20
2022-10-12T15:33:01.179Z,17.20
2022-10-12T15:35:33.877Z,17.30
2022-10-12T15:38:01.589Z,17.20
2022-10-12T15:40:30.951Z,17.20
2022-10-12T15:42:59.030Z,17.20
2022-10-12T15:45:36.285Z,17.20
2022-10-12T15:48:06.116Z,17.20
2022-10-12T15:50:43.253Z,17.20
2022-10-12T15:53:21.023Z,17.10
2022-10-12T15:55:48.835Z,17.00
2022-10-12T15:58:16.826Z,16.90
2022-10-12T16:00:44.621Z,16.90
2022-10-12T16:03:22.690Z,16.80
2022-10-12T16:05:53.365Z,16.70
2022-10-12T16:08:20.975Z,16.70
2022-10-12T16:10:50.411Z,16.70
2022-10-12T16:13:18.491Z,16.60
2022-10-12T16:15:46.297Z,16.60
2022-10-12T16:18:17.453Z,16.50
2022-10-12T16:20:48.585Z,16.50
2022-10-12T16:23:30.846Z,16.40
2022-10-12T16:25:59.097Z,16.40
2022-10-12T16:28:26.974Z,16.40
2022-10-12T16:30:54.934Z,16.40
2022-10-12T16:33:22.599Z,16.30
2022-10-12T16:35:50.224Z,16.30
2022-10-12T16:38:20.273Z,16.30
2022-10-12T16:40:49.403Z,16.20
2022-10-12T16:43:17.550Z,16.20
2022-10-12T16:45:45.368Z,16.10
2022-10-12T16:48:13.530Z,16.10
2022-10-12T16:50:43.683Z,16.10
2022-10-12T16:53:11.551Z,16.10
2022-10-12T16:55:39.331Z,16.00
2022-10-12T16:58:07.224Z,16.00
2022-10-12T17:00:35.216Z,16.00
2022-10-12T17:03:04.640Z,16.00
2022-10-12T17:05:32.688Z,15.90
2022-10-12T17:08:14.769Z,15.90
2022-10-12T17:10:46.269Z,15.80
2022-10-12T17:13:14.587Z,15.70
2022-10-12T17:15:55.033Z,15.60
2022-10-12T17:18:29.378Z,15.60
2022-10-12T17:21:00.740Z,15.60
2022-10-12T17:23:29.140Z,15.50
2022-10-12T17:26:00.075Z,15.50
2022-10-12T17:28:31.435Z,15.50
2022-10-12T17:31:11.460Z,15.40
2022-10-12T17:33:42.388Z,15.40
2022-10-12T17:36:17.036Z,15.40
2022-10-12T17:38:52.714Z,15.40
2022-10-12T17:41:28.917Z,15.40
2022-10-12T17:44:00.190Z,15.40
2022-10-12T17:46:28.311Z,15.40
2022-10-12T17:48:58.908Z,15.30
2022-10-12T17:51:27.007Z,15.30
2022-10-12T17:53:54.663Z,15.30
2022-10-12T17:56:22.805Z,15.30
2022-10-12T17:58:58.648Z,15.20
2022-10-12T18:01:31.273Z,15.20
2022-10-12T18:04:03.914Z,15.20
2022-10-12T18:06:34.510Z,15.20
2022-10-12T18:09:04.777Z,15.20
2022-10-12T18:11:36.558Z,15.10
2022-10-12T18:14:11.678Z,15.10
2022-10-12T18:16:39.367Z,15.00
2022-10-12T18:19:09.739Z,15.00
2022-10-12T18:21:38.380Z,15.00
2022-10-12T18:24:15.971Z,15.00
2022-10-12T18:26:46.344Z,15.00
2022-10-12T18:29:21.027Z,15.00
2022-10-12T18:32:03.631Z,15.00
2022-10-12T18:35:07.278Z,15.00
2022-10-12T18:37:40.217Z,15.00
2022-10-12T18:40:17.303Z,15.00
2022-10-12T18:42:44.909Z,15.00
2022-10-12T18:45:12.671Z,15.00
2022-10-12T18:47:40.336Z,15.00
2022-10-12T18:50:08.610Z,14.90
2022-10-12T18:52:36.223Z,14.90
2022-10-12T18:55:03.934Z,14.80
2022-10-12T18:57:33.563Z,14.80
2022-10-12T19:00:07.253Z,14.80
2022-10-12T19:02:36.095Z,14.80
2022-10-12T19:05:04.288Z,14.80
2022-10-12T19:07:33.259Z,14.80
2022-10-12T19:10:01.118Z,14.70
2022-10-12T19:12:28.747Z,14.70
2022-10-12T19:14:56.325Z,14.70
2022-10-12T19:17:23.963Z,14.70
2022-10-12T19:19:51.579Z,14.60
2022-10-12T19:22:19.548Z,14.60
2022-10-12T19:24:48.207Z,14.60
2022-10-12T19:27:15.789Z,14.60
2022-10-12T19:29:45.774Z,14.60
2022-10-12T19:32:13.583Z,14.60
2022-10-12T19:34:41.153Z,14.60
2022-10-12T19:37:08.733Z,14.60
2022-10-12T19:39:36.471Z,14.60
2022-10-12T19:42:10.826Z,14.70
2022-10-12T19:44:39.338Z,14.80
2022-10-12T19:47:06.942Z,14.80
2022-10-12T19:49:36.960Z,14.80
2022-10-12T19:52:06.075Z,14.80
2022-10-12T19:54:36.198Z,14.80
2022-10-12T19:57:04.254Z,14.70
2022-10-12T19:59:31.934Z,14.70
2022-10-12T20:01:59.525Z,14.60
2022-10-12T20:04:29.616Z,14.60
2022-10-12T20:06:57.248Z,14.50
2022-10-12T20:09:24.916Z,14.50
2022-10-12T20:11:52.525Z,14.40
2022-10-12T20:14:20.544Z,14.40
2022-10-12T20:16:48.154Z,14.30
2022-10-12T20:19:15.767Z,14.30
2022-10-12T20:21:43.297Z,14.30
2022-10-12T20:24:11.188Z,14.20
2022-10-12T20:26:38.977Z,14.20
2022-10-12T20:29:06.874Z,14.20
2022-10-12T20:31:34.530Z,14.10
2022-10-12T20:34:02.290Z,14.10
2022-10-12T20:36:31.025Z,14.10
2022-10-12T20:38:59.258Z,14.10
2022-10-12T20:41:27.711Z,14.10
2022-10-12T20:43:59.800Z,14.10
2022-10-12T20:46:30.808Z,14.10
2022-10-12T20:49:01.149Z,14.10
2022-10-12T20:51:31.900Z,14.10
2022-10-12T20:54:00.593Z,14.10
2022-10-12T20:56:30.247Z,14.10
2022-10-12T20:58:58.419Z,14.10
2022-10-12T21:01:26.644Z,14.10
2022-10-12T21:03:54.747Z,14.10
2022-10-12T21:06:23.738Z,14.20
2022-10-12T21:08:58.078Z,14.20
2022-10-12T21:11:25.839Z,14.20
2022-10-12T21:13:57.462Z,14.20
2022-10-12T21:16:27.307Z,14.20
2022-10-12T21:18:55.634Z,14.20
2022-10-12T21:21:25.266Z,14.20
2022-10-12T21:23:58.804Z,14.20
2022-10-12T21:26:32.928Z,14.20
2022-10-12T21:29:02.056Z,14.20
2022-10-12T21:31:33.014Z,14.20
2022-10-12T21:34:02.690Z,14.20
2022-10-12T21:36:31.558Z,14.20
2022-10-12T21:38:59.593Z,14.20
2022-10-12T21:41:29.357Z,14.20
2022-10-12T21:43:57.642Z,14.20
2022-10-12T21:46:27.859Z,14.20
2022-10-12T21:48:55.975Z,14.20
2022-10-12T21:51:25.169Z,14.20
2022-10-12T21:53:53.275Z,14.20
2022-10-12T21:56:23.739Z,14.20
2022-10-12T21:58:53.448Z,14.20
2022-10-12T22:01:26.598Z,14.30
2022-10-12T22:03:57.158Z,14.20
2022-10-12T22:06:27.444Z,14.30
2022-10-12T22:09:05.301Z,14.30
2022-10-12T22:11:35.032Z,14.30
2022-10-12T22:14:05.590Z,14.30
2022-10-12T22:16:33.610Z,14.30
2022-10-12T22:19:03.519Z,14.40
2022-10-12T22:21:34.039Z,14.40
2022-10-12T22:24:02.753Z,14.40
2022-10-12T22:26:30.728Z,14.40
2022-10-12T22:28:59.891Z,14.40
2022-10-12T22:31:27.972Z,14.40
2022-10-12T22:33:56.481Z,14.40
2022-10-12T22:36:24.109Z,14.40
2022-10-12T22:38:51.722Z,14.40
2022-10-12T22:41:20.907Z,14.50
2022-10-12T22:43:50.359Z,14.40
2022-10-12T22:46:19.357Z,14.40
2022-10-12T22:48:47.320Z,14.40
2022-10-12T22:51:21.740Z,14.40
2022-10-12T22:53:49.751Z,14.40
2022-10-12T22:56:18.618Z,14.40
2022-10-12T22:58:48.866Z,14.40
2022-10-12T23:01:17.948Z,14.40
2022-10-12T23:03:46.051Z,14.40
2022-10-12T23:06:16.928Z,14.40
2022-10-12T23:08:45.434Z,14.40
2022-10-12T23:11:19.357Z,14.40
2022-10-12T23:13:48.105Z,14.40
2022-10-12T23:16:17.371Z,14.40
2022-10-12T23:18:45.492Z,14.40
2022-10-12T23:21:17.380Z,14.30
2022-10-12T23:23:46.218Z,14.30
2022-10-12T23:26:19.758Z,14.30
2022-10-12T23:28:48.436Z,14.30
2022-10-12T23:31:19.972Z,14.20
2022-10-12T23:33:48.013Z,14.20
2022-10-12T23:36:17.393Z,14.20
2022-10-12T23:38:45.483Z,14.20
2022-10-12T23:41:13.985Z,14.20
2022-10-12T23:43:42.367Z,14.20
2022-10-12T23:46:12.601Z,14.20
2022-10-12T23:48:40.480Z,14.20
2022-10-12T23:51:09.727Z,14.20
2022-10-12T23:53:37.981Z,14.20
2022-10-12T23:56:06.618Z,14.20
2022-10-12T23:58:35.145Z,14.20
